createdAt,value
2023-04-11T00:01:07.346Z,18.00
2023-04-11T00:03:34.732Z,18.13
2023-04-11T00:06:01.942Z,18.27
2023-04-11T00:08:29.012Z,19.83
2023-04-11T00:10:55.867Z,19.03
2023-04-11T00:13:24.050Z,21.90
2023-04-11T00:15:55.443Z,22.77
2023-04-11T00:18:25.700Z,21.70
2023-04-11T00:20:52.527Z,26.30
2023-04-11T00:23:20.345Z,26.37
2023-04-11T00:25:47.758Z,39.07
2023-04-11T00:28:15.444Z,29.10
2023-04-11T00:30:42.334Z,26.33
2023-04-11T00:33:09.198Z,28.37
2023-04-11T00:35:37.936Z,28.83
2023-04-11T00:38:05.562Z,26.60
2023-04-11T00:42:59.252Z,34.40
2023-04-11T00:45:28.153Z,33.23
2023-04-11T00:47:55.271Z,31.97
2023-04-11T00:50:22.316Z,35.93
2023-04-11T00:52:51.597Z,37.37
2023-04-11T00:55:18.561Z,35.80
2023-04-11T00:57:45.477Z,35.13
2023-04-11T01:00:13.825Z,37.73
2023-04-11T01:02:43.426Z,35.43
2023-04-11T01:05:11.971Z,34.83
2023-04-11T01:07:41.422Z,34.00
2023-04-11T01:10:10.779Z,34.63
2023-04-11T01:12:39.879Z,29.03
2023-04-11T01:15:07.334Z,29.97
2023-04-11T01:17:34.496Z,27.93
2023-04-11T01:20:01.915Z,28.87
2023-04-11T01:22:30.620Z,28.67
2023-04-11T01:24:57.708Z,40.17
2023-04-11T01:27:27.235Z,25.60
2023-04-11T01:29:54.133Z,26.23
2023-04-11T01:32:20.964Z,25.80
2023-04-11T01:34:49.605Z,24.60
2023-04-11T01:37:16.676Z,25.73
2023-04-11T01:39:43.762Z,26.80
2023-04-11T01:42:11.277Z,26.57
2023-04-11T01:44:38.487Z,26.30
2023-04-11T01:47:05.429Z,24.77
2023-04-11T01:49:32.383Z,27.23
2023-04-11T01:51:59.380Z,22.23
2023-04-11T01:54:26.305Z,27.47
2023-04-11T01:56:54.920Z,25.50
2023-04-11T01:59:21.926Z,27.97
2023-04-11T02:01:48.939Z,26.70
2023-04-11T02:04:16.086Z,26.43
2023-04-11T02:06:42.949Z,25.27
2023-04-11T02:09:09.763Z,26.47
2023-04-11T02:11:36.732Z,25.27
2023-04-11T02:14:04.086Z,26.17
2023-04-11T02:16:31.030Z,27.30
2023-04-11T02:18:58.343Z,22.20
2023-04-11T02:21:25.661Z,42.77
2023-04-11T02:23:52.493Z,26.63
2023-04-11T02:26:19.297Z,30.80
2023-04-11T02:28:46.081Z,24.93
2023-04-11T02:31:13.005Z,25.93
2023-04-11T02:33:39.849Z,25.37
2023-04-11T02:36:07.179Z,23.50
2023-04-11T02:38:34.090Z,32.03
2023-04-11T02:41:01.218Z,30.30
2023-04-11T02:43:28.025Z,30.80
2023-04-11T02:46:02.028Z,28.83
2023-04-11T02:48:32.997Z,24.33
2023-04-11T02:50:59.790Z,27.00
2023-04-11T02:53:26.609Z,27.10
2023-04-11T02:55:53.433Z,25.07
2023-04-11T02:58:20.266Z,29.17
2023-04-11T03:00:49.750Z,30.90
2023-04-11T03:03:16.702Z,42.23
2023-04-11T03:05:43.629Z,29.00
2023-04-11T03:08:10.455Z,27.60
2023-04-11T03:10:37.392Z,26.00
2023-04-11T03:13:04.341Z,29.63
2023-04-11T03:15:32.393Z,28.40
2023-04-11T03:17:59.603Z,25.87
2023-04-11T03:20:26.533Z,24.37
2023-04-11T03:22:53.507Z,25.17
2023-04-11T03:25:20.449Z,25.20
2023-04-11T03:27:57.619Z,26.07
2023-04-11T03:30:24.476Z,26.60
2023-04-11T03:32:53.106Z,25.70
2023-04-11T03:35:20.818Z,26.47
2023-04-11T03:37:48.286Z,23.83
2023-04-11T03:40:15.124Z,24.47
2023-04-11T03:42:42.007Z,25.67
2023-04-11T03:45:09.390Z,27.33
2023-04-11T03:47:36.332Z,25.17
2023-04-11T03:50:03.981Z,26.63
2023-04-11T03:52:30.850Z,24.03
2023-04-11T03:54:57.701Z,26.17
2023-04-11T03:57:26.967Z,24.37
2023-04-11T04:00:00.712Z,24.27
2023-04-11T04:02:27.697Z,23.87
2023-04-11T04:04:55.341Z,27.73
2023-04-11T04:07:22.324Z,24.87
2023-04-11T04:09:49.141Z,24.20
2023-04-11T04:12:17.801Z,22.80
2023-04-11T04:14:48.186Z,26.00
2023-04-11T04:17:16.335Z,24.23
2023-04-11T04:19:44.358Z,27.10
2023-04-11T04:22:17.746Z,23.90
2023-04-11T04:24:46.300Z,25.20
2023-04-11T04:27:18.225Z,23.87
2023-04-11T04:29:51.638Z,23.77
2023-04-11T04:32:22.955Z,27.43
2023-04-11T04:34:55.021Z,23.20
2023-04-11T04:37:27.546Z,25.53
2023-04-11T04:40:09.454Z,24.53
2023-04-11T04:42:36.528Z,25.37
2023-04-11T04:45:04.709Z,25.43
2023-04-11T04:47:34.087Z,25.67
2023-04-11T04:50:04.346Z,25.37
2023-04-11T04:52:31.352Z,25.73
2023-04-11T04:54:58.780Z,25.57
2023-04-11T04:57:27.263Z,27.67
2023-04-11T04:59:58.510Z,27.07
2023-04-11T05:02:26.896Z,27.77
2023-04-11T05:04:54.738Z,28.20
2023-04-11T05:07:21.601Z,29.80
2023-04-11T05:09:51.812Z,27.13
2023-04-11T05:12:26.202Z,27.90
2023-04-11T05:14:55.628Z,26.13
2023-04-11T05:17:25.305Z,27.43
2023-04-11T05:19:52.900Z,26.43
2023-04-11T05:22:19.753Z,27.00
2023-04-11T05:24:46.695Z,25.97
2023-04-11T05:27:19.528Z,24.60
2023-04-11T05:29:46.607Z,26.23
2023-04-11T05:32:14.296Z,26.50
2023-04-11T05:34:52.768Z,29.43
2023-04-11T05:37:20.102Z,25.20
2023-04-11T05:39:47.675Z,27.13
2023-04-11T05:42:17.487Z,27.40
2023-04-11T05:44:44.759Z,30.43
2023-04-11T05:47:11.991Z,28.57
2023-04-11T05:49:42.294Z,28.63
2023-04-11T05:52:09.938Z,27.03
2023-04-11T05:54:37.334Z,26.30
2023-04-11T05:57:04.338Z,26.80
2023-04-11T05:59:32.656Z,26.23
2023-04-11T06:02:00.943Z,26.67
2023-04-11T06:04:28.041Z,25.20
2023-04-11T06:06:55.865Z,23.17
2023-04-11T06:09:22.752Z,23.43
2023-04-11T06:11:49.572Z,26.73
2023-04-11T06:14:16.404Z,22.20
2023-04-11T06:16:44.333Z,20.63
2023-04-11T06:19:14.485Z,22.77
2023-04-11T06:21:54.776Z,22.67
2023-04-11T06:24:39.349Z,23.33
2023-04-11T06:27:10.049Z,21.37
2023-04-11T06:29:39.804Z,21.50
2023-04-11T06:32:07.617Z,19.57
2023-04-11T06:34:35.057Z,26.90
2023-04-11T06:37:02.097Z,18.77
2023-04-11T06:39:29.040Z,23.30
2023-04-11T06:42:02.244Z,23.93
2023-04-11T06:44:36.959Z,21.57
2023-04-11T06:47:04.025Z,23.70
2023-04-11T06:49:31.387Z,18.93
2023-04-11T06:51:59.811Z,21.27
2023-04-11T06:54:26.688Z,25.37
2023-04-11T06:56:53.641Z,23.70
2023-04-11T06:59:20.817Z,19.60
2023-04-11T07:01:48.831Z,18.63
2023-04-11T07:04:16.399Z,19.30
2023-04-11T07:06:43.426Z,18.03
2023-04-11T07:09:12.732Z,19.60
2023-04-11T07:11:39.921Z,20.80
2023-04-11T07:14:07.284Z,21.30
2023-04-11T07:16:35.161Z,20.83
2023-04-11T07:19:03.234Z,17.43
2023-04-11T07:21:32.595Z,16.60
2023-04-11T07:24:00.857Z,16.73
2023-04-11T07:26:32.216Z,14.50
2023-04-11T07:29:02.201Z,15.13
2023-04-11T07:31:29.231Z,18.20
2023-04-11T07:33:56.361Z,16.60
2023-04-11T07:36:23.337Z,16.03
2023-04-11T07:38:50.508Z,16.47
2023-04-11T07:41:17.360Z,19.77
2023-04-11T07:43:48.031Z,15.40
2023-04-11T07:46:15.706Z,13.87
2023-04-11T07:48:43.172Z,15.13
2023-04-11T07:51:10.065Z,14.17
2023-04-11T07:53:37.474Z,13.53
2023-04-11T07:56:05.107Z,13.73
2023-04-11T07:58:32.167Z,12.67
2023-04-11T08:00:59.579Z,17.97
2023-04-11T08:03:29.422Z,14.90
2023-04-11T08:05:59.301Z,17.00
2023-04-11T08:08:26.469Z,10.17
2023-04-11T08:10:53.358Z,9.40
2023-04-11T08:13:20.316Z,8.03
2023-04-11T08:15:48.261Z,11.30
2023-04-11T08:18:16.444Z,10.70
2023-04-11T08:20:43.490Z,7.03
2023-04-11T08:23:11.302Z,6.93
2023-04-11T08:25:39.170Z,8.23
2023-04-11T08:28:06.357Z,8.40
2023-04-11T08:30:33.345Z,7.20
2023-04-11T08:33:00.437Z,6.10
2023-04-11T08:35:27.702Z,6.70
2023-04-11T08:37:55.053Z,5.93
2023-04-11T08:40:21.993Z,6.00
2023-04-11T08:42:49.344Z,4.60
2023-04-11T08:45:19.929Z,5.53
2023-04-11T08:47:46.897Z,5.57
2023-04-11T08:50:17.451Z,4.53
2023-04-11T08:52:53.456Z,5.73
2023-04-11T08:58:44.282Z,4.27
2023-04-11T09:01:28.986Z,7.32
2023-04-11T09:03:56.369Z,5.57
2023-04-11T09:06:27.875Z,4.40
2023-04-11T09:08:55.204Z,5.13
2023-04-11T09:11:22.129Z,6.57
2023-04-11T09:14:08.510Z,7.30
2023-04-11T09:16:35.947Z,4.43
2023-04-11T09:19:03.244Z,4.93
2023-04-11T09:21:31.132Z,4.80
2023-04-11T09:24:17.705Z,3.47
2023-04-11T09:26:44.763Z,3.63
2023-04-11T09:29:11.774Z,6.37
2023-04-11T09:31:41.931Z,4.57
2023-04-11T09:34:09.159Z,9.27
2023-04-11T09:36:35.972Z,3.40
2023-04-11T09:39:23.935Z,4.07
2023-04-11T09:41:53.530Z,3.90
2023-04-11T09:44:37.711Z,4.63
2023-04-11T09:47:05.143Z,4.53
2023-04-11T09:49:34.296Z,4.80
2023-04-11T09:52:01.847Z,5.27
2023-04-11T09:54:30.027Z,5.10
2023-04-11T09:56:59.218Z,4.63
2023-04-11T09:59:30.587Z,5.70
2023-04-11T10:01:58.865Z,4.83
2023-04-11T10:04:28.911Z,10.07
2023-04-11T10:07:02.334Z,8.63
2023-04-11T10:09:30.095Z,5.67
2023-04-11T10:11:57.406Z,5.87
2023-04-11T10:14:39.822Z,5.67
2023-04-11T10:17:21.279Z,6.40
2023-04-11T10:19:57.066Z,9.10
2023-04-11T10:22:46.575Z,9.27
2023-04-11T10:25:16.975Z,10.57
2023-04-11T10:34:20.712Z,6.23
2023-04-11T10:37:13.382Z,5.43
2023-04-11T10:39:55.399Z,13.43
2023-04-11T10:42:42.346Z,6.57
2023-04-11T10:45:29.656Z,5.50
2023-04-11T10:48:27.738Z,7.50
2023-04-11T10:51:53.582Z,6.13
2023-04-11T10:54:35.813Z,6.73
2023-04-11T10:57:02.967Z,13.10
2023-04-11T10:59:34.220Z,10.90
2023-04-11T11:02:02.045Z,7.50
2023-04-11T11:04:42.184Z,7.63
2023-04-11T11:07:17.635Z,4.97
2023-04-11T11:09:53.852Z,4.53
2023-04-11T11:12:22.856Z,4.43
2023-04-11T11:14:54.049Z,5.83
2023-04-11T11:17:23.549Z,6.50
2023-04-11T11:19:50.572Z,5.13
2023-04-11T11:22:19.122Z,6.40
2023-04-11T11:24:45.992Z,7.33
2023-04-11T11:27:20.619Z,6.23
2023-04-11T11:30:05.550Z,4.50
2023-04-11T11:32:32.968Z,5.07
2023-04-11T11:35:00.593Z,5.57
2023-04-11T11:37:27.784Z,5.47
2023-04-11T11:39:57.839Z,6.23
2023-04-11T11:42:24.748Z,6.77
2023-04-11T11:44:51.708Z,6.17
2023-04-11T11:47:46.191Z,5.57
2023-04-11T11:50:27.040Z,7.27
2023-04-11T11:52:54.302Z,6.33
2023-04-11T11:55:22.436Z,5.90
2023-04-11T11:57:50.239Z,5.90
2023-04-11T12:00:25.880Z,6.63
2023-04-11T12:03:10.928Z,7.03
2023-04-11T12:05:38.818Z,8.20
2023-04-11T12:08:07.524Z,9.60
2023-04-11T12:10:43.594Z,6.70
2023-04-11T12:13:20.269Z,6.10
2023-04-11T12:15:53.193Z,6.13
2023-04-11T12:18:29.091Z,7.67
2023-04-11T12:20:56.114Z,6.13
2023-04-11T12:23:25.456Z,6.67
2023-04-11T12:25:52.436Z,8.80
2023-04-11T12:28:22.180Z,8.37
2023-04-11T12:30:49.038Z,6.97
2023-04-11T12:33:18.889Z,6.67
2023-04-11T12:36:00.344Z,7.33
2023-04-11T12:38:27.375Z,7.03
2023-04-11T12:41:13.864Z,6.23
2023-04-11T12:46:28.591Z,6.67
2023-04-11T12:58:51.131Z,7.70
2023-04-11T13:01:19.472Z,7.33
2023-04-11T13:03:46.574Z,9.37
2023-04-11T13:06:13.471Z,7.25
2023-04-11T13:08:40.330Z,8.47
2023-04-11T13:11:07.543Z,7.13
2023-04-11T13:13:35.648Z,6.80
2023-04-11T13:16:02.692Z,7.53
2023-04-11T13:18:29.680Z,7.67
2023-04-11T13:20:57.549Z,8.20
2023-04-11T13:23:24.578Z,6.97
2023-04-11T13:25:51.732Z,7.13
2023-04-11T13:28:19.398Z,15.93
2023-04-11T13:30:50.104Z,9.53
2023-04-11T13:33:17.034Z,7.73
2023-04-11T13:35:46.027Z,7.45
2023-04-11T13:38:25.754Z,7.87
2023-04-11T13:40:52.797Z,9.23
2023-04-11T13:43:25.758Z,6.63
2023-04-11T13:45:52.616Z,6.93
2023-04-11T13:48:19.584Z,6.60
2023-04-11T13:50:46.447Z,7.50
2023-04-11T13:53:14.045Z,9.83
2023-04-11T13:55:41.452Z,6.97
2023-04-11T13:58:08.306Z,7.67
2023-04-11T14:00:36.290Z,6.93
2023-04-11T14:03:03.426Z,7.30
2023-04-11T14:05:32.582Z,6.67
2023-04-11T14:08:00.190Z,7.10
2023-04-11T14:10:27.117Z,7.27
2023-04-11T14:12:54.240Z,7.37
2023-04-11T14:16:05.009Z,10.73
2023-04-11T14:18:36.151Z,6.33
2023-04-11T14:21:08.822Z,7.80
2023-04-11T14:23:36.303Z,9.10
2023-04-11T14:26:03.276Z,10.47
2023-04-11T14:28:30.150Z,7.30
2023-04-11T14:30:59.786Z,6.90
2023-04-11T14:33:27.359Z,6.60
2023-04-11T14:39:18.401Z,6.03
2023-04-11T14:41:45.486Z,6.27
2023-04-11T14:44:12.726Z,6.90
2023-04-11T14:46:39.637Z,5.77
2023-04-11T14:49:07.499Z,5.80
2023-04-11T14:54:40.000Z,5.53
2023-04-11T14:57:06.915Z,6.47
2023-04-11T14:59:34.077Z,5.87
2023-04-11T15:02:01.117Z,6.33
2023-04-11T15:04:28.536Z,7.00
2023-04-11T15:06:55.563Z,7.30
2023-04-11T15:09:22.529Z,10.97
2023-04-11T15:11:49.948Z,5.33
2023-04-11T15:14:16.780Z,6.33
2023-04-11T15:16:44.303Z,6.90
2023-04-11T15:19:11.247Z,6.35
2023-04-11T15:21:38.814Z,7.90
2023-04-11T15:24:07.465Z,8.20
2023-04-11T15:26:44.082Z,6.43
2023-04-11T15:29:17.982Z,5.83
2023-04-11T15:31:49.618Z,6.30
2023-04-11T15:34:17.020Z,6.63
2023-04-11T15:36:45.245Z,6.30
2023-04-11T15:39:12.204Z,6.83
2023-04-11T15:41:39.122Z,6.50
2023-04-11T15:44:06.593Z,7.57
2023-04-11T15:49:24.986Z,6.93
2023-04-11T15:59:04.257Z,7.77
2023-04-11T16:01:31.683Z,6.50
2023-04-11T16:04:00.150Z,8.30
2023-04-11T16:06:27.414Z,8.83
2023-04-11T16:08:54.574Z,7.23
2023-04-11T16:11:21.415Z,7.30
2023-04-11T16:16:32.080Z,7.53
2023-04-11T16:29:14.846Z,7.80
2023-04-11T16:31:41.832Z,6.97
2023-04-11T16:34:11.848Z,8.27
2023-04-11T16:36:53.891Z,7.73
2023-04-11T16:39:24.322Z,8.60
2023-04-11T16:41:57.339Z,7.63
2023-04-11T16:44:24.282Z,8.27
2023-04-11T16:47:33.944Z,7.60
2023-04-11T16:53:58.515Z,9.47
2023-04-11T16:56:43.472Z,7.73
2023-04-11T16:59:12.321Z,8.13
2023-04-11T17:01:39.418Z,7.63
2023-04-11T17:04:07.028Z,8.43
2023-04-11T17:06:37.500Z,8.80
2023-04-11T17:09:06.606Z,9.47
2023-04-11T17:11:36.207Z,9.10
2023-04-11T17:14:04.247Z,11.30
2023-04-11T17:16:32.349Z,11.57
2023-04-11T17:18:59.808Z,9.13
2023-04-11T17:21:27.497Z,8.50
2023-04-11T17:24:09.266Z,9.87
2023-04-11T17:26:50.229Z,10.27
2023-04-11T17:29:40.917Z,8.73
2023-04-11T17:32:14.900Z,11.27
2023-04-11T17:35:10.894Z,9.17
2023-04-11T17:37:38.235Z,11.87
2023-04-11T17:40:14.014Z,12.87
2023-04-11T17:42:46.223Z,9.60
2023-04-11T17:53:38.939Z,10.30
2023-04-11T17:58:05.881Z,11.70
2023-04-11T18:00:35.051Z,11.27
2023-04-11T18:03:06.177Z,12.18
2023-04-11T18:05:37.431Z,11.67
2023-04-11T18:08:05.564Z,10.90
2023-04-11T18:10:32.685Z,15.23
2023-04-11T18:12:59.675Z,12.90
2023-04-11T18:15:27.910Z,11.63
2023-04-11T18:17:55.373Z,11.50
2023-04-11T18:20:26.365Z,12.87
2023-04-11T18:22:57.511Z,18.23
2023-04-11T18:25:24.614Z,13.07
2023-04-11T18:27:51.519Z,12.67
2023-04-11T18:30:18.624Z,14.90
2023-04-11T18:32:50.700Z,14.83
2023-04-11T18:35:19.662Z,14.53
2023-04-11T18:37:46.664Z,16.47
2023-04-11T18:40:14.269Z,16.90
2023-04-11T18:42:43.227Z,14.00
2023-04-11T18:45:12.201Z,15.30
2023-04-11T18:47:41.651Z,16.27
2023-04-11T18:50:18.559Z,17.07
2023-04-11T18:52:46.921Z,15.20
2023-04-11T18:55:15.263Z,18.67
2023-04-11T18:57:47.798Z,17.43
2023-04-11T19:00:18.992Z,18.60
2023-04-11T19:02:50.319Z,16.53
2023-04-11T19:05:21.067Z,18.40
2023-04-11T19:07:48.222Z,18.77
2023-04-11T19:10:15.464Z,18.37
2023-04-11T19:12:42.429Z,18.23
2023-04-11T19:15:12.034Z,17.50
2023-04-11T19:17:39.111Z,18.13
2023-04-11T19:20:19.183Z,18.90
2023-04-11T19:22:46.624Z,19.00
2023-04-11T19:25:14.731Z,21.97
2023-04-11T19:27:42.780Z,21.60
2023-04-11T19:30:11.225Z,21.90
2023-04-11T19:32:40.981Z,20.63
2023-04-11T19:35:10.565Z,21.23
2023-04-11T19:37:38.741Z,18.30
2023-04-11T19:40:16.680Z,19.77
2023-04-11T19:42:45.361Z,21.30
2023-04-11T19:45:12.806Z,20.83
2023-04-11T19:47:42.313Z,23.27
2023-04-11T19:50:14.280Z,20.93
2023-04-11T19:52:42.665Z,19.70
2023-04-11T19:55:13.212Z,23.13
2023-04-11T19:57:41.094Z,21.80
2023-04-11T20:00:17.114Z,20.07
2023-04-11T20:02:46.040Z,22.37
2023-04-11T20:05:18.678Z,19.70
2023-04-11T20:07:46.576Z,20.63
2023-04-11T20:10:15.121Z,22.83
2023-04-11T20:12:42.037Z,20.80
2023-04-11T20:15:09.529Z,22.13
2023-04-11T20:17:46.403Z,23.13
2023-04-11T20:20:15.804Z,24.30
2023-04-11T20:22:44.973Z,25.43
2023-04-11T20:25:17.375Z,23.03
2023-04-11T20:27:44.345Z,22.23
2023-04-11T20:30:13.453Z,22.27
2023-04-11T20:32:41.312Z,28.80
2023-04-11T20:35:10.125Z,26.30
2023-04-11T20:37:37.370Z,21.37
2023-04-11T20:40:11.050Z,24.53
2023-04-11T20:42:40.094Z,21.33
2023-04-11T20:45:09.277Z,21.43
2023-04-11T20:47:37.680Z,22.37
2023-04-11T20:50:10.540Z,23.63
2023-04-11T20:52:38.193Z,22.00
2023-04-11T20:55:05.958Z,20.67
2023-04-11T20:57:35.528Z,21.73
2023-04-11T21:00:24.213Z,21.60
2023-04-11T21:02:51.717Z,32.07
2023-04-11T21:05:27.510Z,21.53
2023-04-11T21:07:54.857Z,23.47
2023-04-11T21:10:21.839Z,19.90
2023-04-11T21:12:51.953Z,20.13
2023-04-11T21:15:20.165Z,17.87
2023-04-11T21:31:55.793Z,28.57
2023-04-11T21:34:22.662Z,28.70
2023-04-11T21:36:50.753Z,25.27
2023-04-11T21:39:17.630Z,24.43
2023-04-11T21:41:44.989Z,25.70
2023-04-11T21:44:13.377Z,25.87
2023-04-11T21:46:40.599Z,24.43
2023-04-11T21:49:07.489Z,28.53
2023-04-11T21:51:34.414Z,24.53
2023-04-11T21:54:04.454Z,23.77
2023-04-11T21:56:31.517Z,26.87
2023-04-11T21:58:58.750Z,27.60
2023-04-11T22:01:25.686Z,28.10
2023-04-11T22:03:53.997Z,23.60
2023-04-11T22:06:22.738Z,24.33
2023-04-11T22:08:50.826Z,25.33
2023-04-11T22:11:18.762Z,28.27
2023-04-11T22:13:46.699Z,27.13
2023-04-11T22:16:14.203Z,26.60
2023-04-11T22:18:49.162Z,34.93
2023-04-11T22:21:22.151Z,29.53
2023-04-11T22:23:54.588Z,32.20
2023-04-11T22:26:35.010Z,28.23
2023-04-11T22:29:05.563Z,28.67
2023-04-11T22:31:38.932Z,28.03
2023-04-11T22:34:08.289Z,27.87
2023-04-11T22:36:37.855Z,27.40
2023-04-11T22:39:08.439Z,28.30
2023-04-11T22:41:38.648Z,27.30
2023-04-11T22:44:06.917Z,26.47
2023-04-11T22:46:38.679Z,27.10
2023-04-11T22:49:09.349Z,28.83
2023-04-11T22:51:38.031Z,28.67
2023-04-11T22:54:05.268Z,29.50
2023-04-11T22:56:32.184Z,32.60
2023-04-11T22:58:59.572Z,31.40
2023-04-11T23:01:26.478Z,30.40
2023-04-11T23:03:53.652Z,63.17
2023-04-11T23:06:20.805Z,32.93
2023-04-11T23:08:47.681Z,28.97
2023-04-11T23:11:14.945Z,29.53
2023-04-11T23:13:42.202Z,31.20
2023-04-11T23:16:09.113Z,31.33
2023-04-11T23:18:36.024Z,32.47
2023-04-11T23:21:04.463Z,29.43
2023-04-11T23:23:31.306Z,30.03
2023-04-11T23:25:58.781Z,30.77
2023-04-11T23:28:25.774Z,31.33
2023-04-11T23:30:52.733Z,38.47
2023-04-11T23:33:19.685Z,30.80
2023-04-11T23:35:47.157Z,30.20
2023-04-11T23:38:14.022Z,30.40
2023-04-11T23:40:40.833Z,29.90
2023-04-11T23:43:08.146Z,30.80
2023-04-11T23:45:37.774Z,31.23
2023-04-11T23:48:05.020Z,30.10
2023-04-11T23:50:32.028Z,30.43
2023-04-11T23:52:58.998Z,31.87
2023-04-11T23:55:26.720Z,31.50
2023-04-11T23:57:54.097Z,29.80
